Taylorsville, Mississippi
Current Conditions -  °F | °C
As of 2:35 AM on Monday 22 Dec 2014 (Local Time) from KPIB Reporting Station
Overcast Overcast  
Wind Chill: 52°   Ceiling: 200
Heat Index: 52°   Visibility: 1mi
Dew Point: 48°   Wind: 3mph
Humidity: 88%   Direction: 100°E
Pressure: 29.92"   Gusts: NA
Location:  31.83°N, 89.43°W
Report Text: KPIB 220835Z AUTO 10003KT 1SM OVC002 11/09 A2992 RMK AO1
Loading
Personal Weather Stations






























Interactive Weather Map New forecast layout! Learn more

10-Day Weather Forecast

Advertisements
Track Severe Weather on mobile